createdAt,value
2023-02-15T00:01:36.196Z,1.00
2023-02-15T00:04:03.900Z,0.90
2023-02-15T00:06:31.444Z,0.80
2023-02-15T00:08:58.256Z,0.70
2023-02-15T00:11:40.708Z,0.60
2023-02-15T00:14:22.568Z,0.60
2023-02-15T00:16:51.479Z,0.70
2023-02-15T00:19:20.214Z,0.70
2023-02-15T00:21:48.086Z,0.70
2023-02-15T00:24:16.743Z,0.70
2023-02-15T00:26:44.984Z,0.80
2023-02-15T00:29:13.100Z,0.70
2023-02-15T00:31:40.138Z,0.70
2023-02-15T00:34:27.967Z,0.70
2023-02-15T00:36:57.285Z,0.70
2023-02-15T00:39:24.934Z,0.70
2023-02-15T00:41:51.744Z,0.70
2023-02-15T00:44:18.620Z,0.80
2023-02-15T00:46:45.376Z,0.90
2023-02-15T00:49:12.712Z,0.90
2023-02-15T00:51:40.471Z,0.80
2023-02-15T00:54:07.417Z,0.80
2023-02-15T00:56:34.248Z,0.70
2023-02-15T00:59:01.042Z,0.70
2023-02-15T01:01:27.922Z,0.60
2023-02-15T01:03:54.679Z,0.50
2023-02-15T01:06:21.627Z,0.60
2023-02-15T01:08:48.887Z,0.60
2023-02-15T01:11:25.028Z,0.70
2023-02-15T01:13:57.463Z,0.60
2023-02-15T01:16:27.044Z,0.60
2023-02-15T01:18:55.481Z,0.60
2023-02-15T01:21:24.332Z,0.60
2023-02-15T01:23:51.245Z,0.60
2023-02-15T01:26:18.644Z,0.60
2023-02-15T01:28:46.049Z,0.60
2023-02-15T01:31:16.612Z,0.60
2023-02-15T01:33:47.139Z,0.70
2023-02-15T01:36:14.231Z,0.60
2023-02-15T01:38:41.175Z,0.60
2023-02-15T01:41:27.592Z,0.60
2023-02-15T01:44:00.437Z,0.50
2023-02-15T01:46:37.900Z,0.50
2023-02-15T01:49:12.668Z,0.50
2023-02-15T01:51:42.092Z,0.50
2023-02-15T01:54:23.207Z,0.40
2023-02-15T01:56:50.019Z,0.40
2023-02-15T01:59:21.343Z,0.40
2023-02-15T02:01:51.246Z,0.40
2023-02-15T02:04:47.254Z,0.40
2023-02-15T02:07:17.197Z,0.50
2023-02-15T02:09:45.169Z,0.50
2023-02-15T02:12:12.597Z,0.60
2023-02-15T02:14:41.536Z,0.50
2023-02-15T02:17:11.665Z,0.50
2023-02-15T02:20:03.218Z,0.40
2023-02-15T02:22:59.136Z,0.40
2023-02-15T02:25:36.549Z,0.40
2023-02-15T02:28:26.237Z,0.40
2023-02-15T02:31:27.773Z,0.30
2023-02-15T02:34:13.374Z,0.30
2023-02-15T02:37:16.033Z,0.30
2023-02-15T02:40:01.379Z,0.20
2023-02-15T02:42:44.214Z,0.20
2023-02-15T02:45:21.025Z,0.10
2023-02-15T02:48:09.261Z,0.10
2023-02-15T02:50:36.043Z,0.20
2023-02-15T02:53:02.835Z,0.20
2023-02-15T02:55:32.034Z,0.30
2023-02-15T02:58:05.335Z,0.30
2023-02-15T03:00:53.423Z,0.20
2023-02-15T03:03:28.400Z,0.20
2023-02-15T03:06:00.741Z,0.20
2023-02-15T03:08:35.174Z,0.20
2023-02-15T03:11:04.165Z,0.00
2023-02-15T03:13:31.250Z,0.10
2023-02-15T03:16:18.051Z,0.10
2023-02-15T03:18:58.800Z,0.30
2023-02-15T03:21:33.615Z,0.30
2023-02-15T03:24:18.625Z,0.30
2023-02-15T03:26:52.532Z,0.30
2023-02-15T03:29:23.029Z,0.30
2023-02-15T03:31:55.841Z,0.20
2023-02-15T03:34:22.787Z,0.20
2023-02-15T03:37:24.689Z,0.20
2023-02-15T03:39:51.376Z,0.20
2023-02-15T03:42:22.465Z,0.10
2023-02-15T03:44:58.253Z,0.10
2023-02-15T03:47:29.566Z,0.00
2023-02-15T03:50:30.650Z,0.00
2023-02-15T03:52:59.680Z,0.10
2023-02-15T03:55:27.051Z,0.10
2023-02-15T03:58:12.241Z,0.10
2023-02-15T04:01:00.877Z,0.10
2023-02-15T04:03:37.874Z,0.10
2023-02-15T04:06:04.978Z,0.10
2023-02-15T04:08:50.197Z,0.10
2023-02-15T04:11:17.059Z,0.10
2023-02-15T04:13:43.870Z,0.10
2023-02-15T04:16:10.618Z,0.10
2023-02-15T04:19:00.573Z,0.10
2023-02-15T04:21:49.306Z,0.10
2023-02-15T04:24:35.145Z,0.10
2023-02-15T04:27:03.313Z,0.10
2023-02-15T04:29:30.778Z,0.00
2023-02-15T04:31:59.096Z,0.00
2023-02-15T04:34:25.881Z,0.00
2023-02-15T04:36:52.746Z,0.20
2023-02-15T04:39:20.310Z,0.30
2023-02-15T04:41:48.805Z,0.20
2023-02-15T04:44:15.745Z,0.10
2023-02-15T04:46:42.498Z,0.00
2023-02-15T04:49:09.858Z,0.00
2023-02-15T04:51:36.817Z,0.00
2023-02-15T04:54:03.634Z,0.00
2023-02-15T04:56:31.060Z,0.20
2023-02-15T04:58:58.132Z,0.30
2023-02-15T05:01:25.155Z,0.20
2023-02-15T05:03:52.032Z,0.10
2023-02-15T05:06:18.889Z,0.00
2023-02-15T05:08:45.624Z,0.00
2023-02-15T05:11:12.405Z,-0.10
2023-02-15T05:13:39.149Z,-0.10
2023-02-15T05:16:06.029Z,-0.10
2023-02-15T05:18:33.870Z,-0.20
2023-02-15T05:21:00.689Z,-0.20
2023-02-15T05:23:27.804Z,-0.20
2023-02-15T05:26:26.737Z,-0.20
2023-02-15T05:28:53.436Z,-0.20
2023-02-15T05:31:20.976Z,-0.20
2023-02-15T05:33:48.020Z,-0.10
2023-02-15T05:36:14.967Z,0.10
2023-02-15T05:38:41.723Z,0.00
2023-02-15T05:41:10.098Z,0.00
2023-02-15T05:43:37.170Z,-0.10
2023-02-15T05:46:04.629Z,-0.10
2023-02-15T05:48:32.213Z,0.00
2023-02-15T05:51:16.973Z,0.00
2023-02-15T05:53:43.742Z,-0.10
2023-02-15T05:56:12.083Z,-0.20
2023-02-15T05:58:41.399Z,-0.10
2023-02-15T06:01:13.850Z,-0.20
2023-02-15T06:03:41.368Z,-0.30
2023-02-15T06:06:08.834Z,-0.30
2023-02-15T06:08:36.850Z,-0.30
2023-02-15T06:11:04.404Z,-0.20
2023-02-15T06:13:31.541Z,0.10
2023-02-15T06:15:58.484Z,0.00
2023-02-15T06:18:25.759Z,-0.10
2023-02-15T06:20:53.714Z,-0.20
2023-02-15T06:23:20.481Z,-0.30
2023-02-15T06:25:47.679Z,-0.30
2023-02-15T06:28:14.864Z,-0.30
2023-02-15T06:30:41.721Z,-0.30
2023-02-15T06:33:08.507Z,-0.30
2023-02-15T06:35:35.254Z,-0.40
2023-02-15T06:38:01.997Z,-0.40
2023-02-15T06:40:28.866Z,-0.40
2023-02-15T06:42:55.557Z,-0.40
2023-02-15T06:45:22.275Z,-0.40
2023-02-15T06:47:49.040Z,-0.40
2023-02-15T06:50:15.876Z,-0.40
2023-02-15T06:52:42.633Z,-0.50
2023-02-15T06:55:09.413Z,-0.50
2023-02-15T06:57:36.143Z,-0.50
2023-02-15T07:00:05.825Z,-0.50
2023-02-15T07:02:32.997Z,-0.60
2023-02-15T07:04:59.840Z,-0.30
2023-02-15T07:07:26.743Z,-0.40
2023-02-15T07:09:53.476Z,-0.40
2023-02-15T07:12:38.683Z,-0.50
2023-02-15T07:15:07.686Z,-0.50
2023-02-15T07:17:36.098Z,-0.40
2023-02-15T07:20:05.917Z,-0.50
2023-02-15T07:22:34.987Z,-0.30
2023-02-15T07:25:01.844Z,-0.30
2023-02-15T07:27:28.599Z,-0.10
2023-02-15T07:29:55.360Z,-0.30
2023-02-15T07:32:22.136Z,-0.40
2023-02-15T07:34:48.988Z,-0.40
2023-02-15T07:37:15.734Z,-0.10
2023-02-15T07:39:42.453Z,0.00
2023-02-15T07:42:09.238Z,-0.10
2023-02-15T07:44:36.706Z,-0.20
2023-02-15T07:47:03.657Z,-0.30
2023-02-15T07:49:30.392Z,-0.30
2023-02-15T07:51:57.104Z,-0.20
2023-02-15T07:54:24.195Z,0.20
2023-02-15T07:56:50.914Z,0.20
2023-02-15T07:59:17.593Z,0.10
2023-02-15T08:01:44.344Z,0.20
2023-02-15T08:04:12.072Z,0.20
2023-02-15T08:06:39.404Z,0.10
2023-02-15T08:09:07.828Z,0.10
2023-02-15T08:11:37.601Z,0.40
2023-02-15T08:14:16.147Z,0.50
2023-02-15T08:16:51.620Z,0.50
2023-02-15T08:19:19.578Z,0.40
2023-02-15T08:21:55.565Z,0.60
2023-02-15T08:24:24.295Z,0.80
2023-02-15T08:26:51.858Z,0.60
2023-02-15T08:29:27.501Z,0.60
2023-02-15T08:31:59.713Z,0.80
2023-02-15T08:34:26.547Z,1.00
2023-02-15T08:36:53.246Z,1.20
2023-02-15T08:39:20.025Z,1.20
2023-02-15T08:41:48.515Z,1.10
2023-02-15T08:44:17.461Z,1.20
2023-02-15T08:46:45.961Z,1.40
2023-02-15T08:49:21.323Z,1.60
2023-02-15T08:51:49.529Z,1.80
2023-02-15T08:54:18.870Z,1.90
2023-02-15T08:56:46.830Z,1.80
2023-02-15T08:59:25.065Z,1.80
2023-02-15T09:01:53.013Z,1.80
2023-02-15T09:04:20.899Z,1.90
2023-02-15T09:06:49.469Z,2.10
2023-02-15T09:09:20.372Z,2.30
2023-02-15T09:11:52.396Z,2.50
2023-02-15T09:14:22.610Z,2.60
2023-02-15T09:16:51.827Z,2.70
2023-02-15T09:19:20.134Z,2.80
2023-02-15T09:21:47.201Z,2.90
2023-02-15T09:24:16.356Z,3.00
2023-02-15T09:26:45.962Z,3.00
2023-02-15T09:29:13.957Z,3.00
2023-02-15T09:31:45.198Z,2.90
2023-02-15T09:34:14.134Z,2.90
2023-02-15T09:36:41.728Z,3.00
2023-02-15T09:39:10.076Z,3.00
2023-02-15T09:41:55.036Z,3.20
2023-02-15T09:44:36.988Z,3.40
2023-02-15T09:47:38.089Z,3.50
2023-02-15T09:50:32.507Z,3.60
2023-02-15T09:53:30.380Z,3.60
2023-02-15T09:56:20.185Z,3.70
2023-02-15T09:59:16.884Z,3.70
2023-02-15T10:02:36.843Z,3.80
2023-02-15T10:05:21.735Z,3.90
2023-02-15T10:08:23.868Z,4.10
2023-02-15T10:11:40.124Z,4.20
2023-02-15T10:14:21.560Z,4.40
2023-02-15T10:17:00.857Z,4.50
2023-02-15T10:19:46.197Z,4.60
2023-02-15T10:22:28.024Z,4.90
2023-02-15T10:25:21.956Z,4.90
2023-02-15T10:27:50.595Z,5.00
2023-02-15T10:30:47.128Z,4.90
2023-02-15T10:33:36.482Z,4.80
2023-02-15T10:36:27.631Z,5.10
2023-02-15T10:39:06.701Z,5.10
2023-02-15T10:41:47.349Z,5.30
2023-02-15T10:44:34.374Z,5.40
2023-02-15T10:47:39.193Z,5.30
2023-02-15T10:50:22.095Z,5.40
2023-02-15T10:53:29.358Z,5.40
2023-02-15T10:56:07.762Z,5.70
2023-02-15T10:59:07.226Z,5.60
2023-02-15T11:01:44.580Z,5.70
2023-02-15T11:04:32.964Z,5.90
2023-02-15T11:07:06.993Z,6.00
2023-02-15T11:09:42.757Z,6.20
2023-02-15T11:12:15.335Z,6.30
2023-02-15T11:14:50.923Z,6.20
2023-02-15T11:17:31.148Z,6.30
2023-02-15T11:20:15.725Z,6.40
2023-02-15T11:22:42.438Z,6.40
2023-02-15T11:25:40.881Z,6.50
2023-02-15T11:28:19.342Z,6.40
2023-02-15T11:30:53.069Z,6.40
2023-02-15T11:33:26.133Z,6.30
2023-02-15T11:36:04.893Z,6.40
2023-02-15T11:38:35.416Z,6.30
2023-02-15T11:41:12.972Z,6.40
2023-02-15T11:44:06.084Z,6.50
2023-02-15T11:46:33.126Z,6.80
2023-02-15T11:49:00.093Z,7.00
2023-02-15T11:51:29.678Z,7.20
2023-02-15T11:53:57.472Z,7.20
2023-02-15T11:56:26.169Z,7.40
2023-02-15T11:58:55.660Z,7.60
2023-02-15T12:01:28.337Z,7.40
2023-02-15T12:04:16.903Z,7.50
2023-02-15T12:07:02.199Z,7.50
2023-02-15T12:09:36.568Z,7.70
2023-02-15T12:12:24.145Z,7.50
2023-02-15T12:14:53.091Z,7.60
2023-02-15T12:17:24.105Z,7.60
2023-02-15T12:19:53.514Z,7.40
2023-02-15T12:22:33.384Z,7.40
2023-02-15T12:25:02.999Z,7.30
2023-02-15T12:27:31.866Z,7.60
2023-02-15T12:30:17.578Z,7.50
2023-02-15T12:32:57.351Z,7.50
2023-02-15T12:35:37.085Z,7.60
2023-02-15T12:38:25.355Z,7.70
2023-02-15T12:41:04.706Z,7.90
2023-02-15T12:43:35.767Z,7.90
2023-02-15T12:46:22.881Z,8.00
2023-02-15T12:49:20.510Z,8.20
2023-02-15T12:51:51.111Z,8.40
2023-02-15T12:54:36.921Z,8.40
2023-02-15T12:57:26.895Z,8.60
2023-02-15T12:59:56.873Z,8.50
2023-02-15T13:02:41.268Z,8.60
2023-02-15T13:05:14.612Z,8.60
2023-02-15T13:07:46.770Z,8.70
2023-02-15T13:10:56.944Z,8.60
2023-02-15T13:13:30.296Z,8.70
2023-02-15T13:16:06.713Z,8.70
2023-02-15T13:18:42.798Z,8.90
2023-02-15T13:21:24.531Z,9.20
2023-02-15T13:24:26.420Z,9.30
2023-02-15T13:27:12.878Z,9.40
2023-02-15T13:29:55.049Z,9.60
2023-02-15T13:32:30.785Z,9.80
2023-02-15T13:34:59.971Z,10.30
2023-02-15T13:37:52.080Z,10.50
2023-02-15T13:40:58.345Z,10.50
2023-02-15T13:43:43.951Z,10.80
2023-02-15T13:46:44.786Z,11.00
2023-02-15T13:49:38.367Z,10.90
2023-02-15T13:52:24.950Z,11.00
2023-02-15T13:55:22.980Z,10.80
2023-02-15T13:58:12.632Z,10.70
2023-02-15T14:00:51.475Z,11.10
2023-02-15T14:03:27.496Z,11.40
2023-02-15T14:06:00.430Z,11.40
2023-02-15T14:08:55.234Z,11.90
2023-02-15T14:11:42.174Z,11.80
2023-02-15T14:14:36.721Z,11.70
2023-02-15T14:17:26.844Z,12.40
2023-02-15T14:20:12.381Z,12.10
2023-02-15T14:23:00.169Z,12.20
2023-02-15T14:25:34.609Z,12.00
2023-02-15T14:28:22.902Z,12.00
2023-02-15T14:30:51.706Z,12.40
2023-02-15T14:33:37.033Z,12.90
2023-02-15T14:36:07.561Z,12.50
2023-02-15T14:38:52.051Z,12.50
2023-02-15T14:41:31.093Z,12.60
2023-02-15T14:44:12.948Z,12.20
2023-02-15T14:47:04.087Z,12.50
2023-02-15T14:49:38.405Z,12.70
2023-02-15T14:52:09.379Z,12.60
2023-02-15T14:54:36.092Z,12.50
2023-02-15T14:57:02.789Z,12.20
2023-02-15T14:59:53.823Z,12.80
2023-02-15T15:02:44.711Z,12.60
2023-02-15T15:05:20.871Z,13.00
2023-02-15T15:07:49.830Z,12.60
2023-02-15T15:10:20.727Z,12.20
2023-02-15T15:12:49.540Z,12.30
2023-02-15T15:15:28.611Z,11.90
2023-02-15T15:17:57.086Z,11.50
2023-02-15T15:20:26.828Z,11.40
2023-02-15T15:23:12.538Z,11.20
2023-02-15T15:25:39.710Z,11.30
2023-02-15T15:28:07.221Z,11.20
2023-02-15T15:30:34.056Z,11.10
2023-02-15T15:33:12.870Z,11.00
2023-02-15T15:36:28.645Z,10.70
2023-02-15T15:39:32.888Z,10.70
2023-02-15T15:42:13.660Z,10.60
2023-02-15T15:45:18.156Z,10.30
2023-02-15T15:48:16.382Z,10.20
2023-02-15T15:50:43.835Z,10.00
2023-02-15T15:53:22.108Z,9.80
2023-02-15T15:55:51.728Z,9.60
2023-02-15T15:58:20.485Z,9.50
2023-02-15T16:00:59.198Z,9.30
2023-02-15T16:03:28.639Z,9.30
2023-02-15T16:05:56.550Z,9.20
2023-02-15T16:08:36.321Z,9.00
2023-02-15T16:11:11.894Z,8.80
2023-02-15T16:13:44.366Z,8.40
2023-02-15T16:16:14.114Z,8.10
2023-02-15T16:18:43.332Z,7.80
2023-02-15T16:21:18.465Z,7.80
2023-02-15T16:24:16.875Z,7.70
2023-02-15T16:27:08.207Z,7.60
2023-02-15T16:29:35.719Z,7.50
2023-02-15T16:32:05.919Z,7.40
2023-02-15T16:34:33.709Z,7.30
2023-02-15T16:37:17.343Z,7.30
2023-02-15T16:39:45.572Z,7.20
2023-02-15T16:42:14.792Z,7.00
2023-02-15T16:44:41.932Z,7.00
2023-02-15T16:47:25.099Z,6.90
2023-02-15T16:49:54.799Z,6.90
2023-02-15T16:52:25.096Z,6.80
2023-02-15T16:54:56.691Z,6.70
2023-02-15T16:57:28.197Z,6.70
2023-02-15T16:59:58.925Z,6.50
2023-02-15T17:02:53.248Z,6.40
2023-02-15T17:05:20.831Z,6.40
2023-02-15T17:08:12.988Z,6.30
2023-02-15T17:10:45.882Z,6.20
2023-02-15T17:13:19.114Z,6.10
2023-02-15T17:16:06.269Z,6.10
2023-02-15T17:18:46.509Z,6.00
2023-02-15T17:21:27.620Z,6.00
2023-02-15T17:24:01.082Z,5.90
2023-02-15T17:26:32.314Z,5.90
2023-02-15T17:29:20.335Z,5.80
2023-02-15T17:31:51.669Z,5.80
2023-02-15T17:34:43.435Z,5.80
2023-02-15T17:37:13.635Z,5.70
2023-02-15T17:39:41.510Z,5.70
2023-02-15T17:42:08.259Z,5.60
2023-02-15T17:44:35.011Z,5.50
2023-02-15T17:47:01.734Z,5.60
2023-02-15T17:49:34.767Z,5.50
2023-02-15T17:52:04.736Z,5.50
2023-02-15T17:54:50.477Z,5.40
2023-02-15T17:57:17.289Z,5.40
2023-02-15T18:00:02.677Z,5.40
2023-02-15T18:02:57.764Z,5.30
2023-02-15T18:05:43.273Z,5.30
2023-02-15T18:08:41.794Z,5.30
2023-02-15T18:11:27.661Z,5.20
2023-02-15T18:13:54.367Z,5.20
2023-02-15T18:16:24.400Z,5.10
2023-02-15T18:18:52.142Z,5.10
2023-02-15T18:21:20.221Z,5.10
2023-02-15T18:23:47.033Z,5.10
2023-02-15T18:26:22.896Z,5.10
2023-02-15T18:28:50.804Z,5.10
2023-02-15T18:31:18.804Z,5.00
2023-02-15T18:33:56.670Z,5.00
2023-02-15T18:36:28.145Z,4.90
2023-02-15T18:38:56.318Z,4.90
2023-02-15T18:41:23.620Z,4.90
2023-02-15T18:44:00.997Z,4.90
2023-02-15T18:46:27.949Z,4.90
2023-02-15T18:48:54.779Z,4.80
2023-02-15T18:51:24.574Z,4.90
2023-02-15T18:53:53.375Z,4.80
2023-02-15T18:56:22.457Z,4.90
2023-02-15T18:58:49.402Z,4.80
2023-02-15T19:01:20.930Z,4.60
2023-02-15T19:03:49.532Z,4.60
2023-02-15T19:06:19.762Z,4.60
2023-02-15T19:08:49.490Z,4.50
2023-02-15T19:11:19.338Z,4.60
2023-02-15T19:13:49.732Z,4.60
2023-02-15T19:16:34.906Z,4.60
2023-02-15T19:19:02.160Z,4.50
2023-02-15T19:21:31.939Z,4.50
2023-02-15T19:24:02.598Z,4.50
2023-02-15T19:26:44.511Z,4.50
2023-02-15T19:29:14.820Z,4.40
2023-02-15T19:31:41.905Z,4.50
2023-02-15T19:34:17.203Z,4.40
2023-02-15T19:36:45.680Z,4.40
2023-02-15T19:39:23.646Z,4.40
2023-02-15T19:41:50.488Z,4.40
2023-02-15T19:44:18.279Z,4.40
2023-02-15T19:46:45.656Z,4.30
2023-02-15T19:49:12.709Z,4.30
2023-02-15T19:51:40.109Z,4.20
2023-02-15T19:54:27.332Z,4.20
2023-02-15T19:56:54.355Z,4.30
2023-02-15T19:59:23.322Z,4.30
2023-02-15T20:01:50.352Z,4.30
2023-02-15T20:04:17.284Z,4.30
2023-02-15T20:06:45.181Z,4.30
2023-02-15T20:09:20.349Z,4.20
2023-02-15T20:11:47.551Z,4.20
2023-02-15T20:14:15.114Z,4.20
2023-02-15T20:16:42.010Z,4.10
2023-02-15T20:19:09.126Z,4.10
2023-02-15T20:21:36.522Z,4.10
2023-02-15T20:24:04.614Z,4.00
2023-02-15T20:26:32.559Z,4.00
2023-02-15T20:29:00.311Z,4.00
2023-02-15T20:31:27.217Z,4.10
2023-02-15T20:33:54.031Z,4.00
2023-02-15T20:36:22.387Z,4.00
2023-02-15T20:38:49.483Z,4.00
2023-02-15T20:41:35.846Z,3.90
2023-02-15T20:44:09.068Z,4.00
2023-02-15T20:46:35.876Z,4.00
2023-02-15T20:49:02.667Z,4.10
2023-02-15T20:51:29.409Z,4.00
2023-02-15T20:53:56.153Z,4.00
2023-02-15T20:56:24.606Z,4.00
2023-02-15T20:58:52.674Z,4.00
2023-02-15T21:01:22.321Z,3.90
2023-02-15T21:03:49.576Z,3.90
2023-02-15T21:06:17.066Z,3.90
2023-02-15T21:08:44.069Z,3.80
2023-02-15T21:11:22.056Z,3.90
2023-02-15T21:13:50.379Z,3.90
2023-02-15T21:16:17.642Z,3.90
2023-02-15T21:18:44.487Z,3.90
2023-02-15T21:21:17.300Z,3.90
2023-02-15T21:23:44.557Z,3.90
2023-02-15T21:26:19.465Z,3.80
2023-02-15T21:28:47.725Z,3.90
2023-02-15T21:31:21.057Z,3.90
2023-02-15T21:33:47.881Z,3.90
2023-02-15T21:36:33.190Z,3.90
2023-02-15T21:39:00.096Z,3.90
2023-02-15T21:41:46.815Z,3.90
2023-02-15T21:44:39.127Z,4.00
2023-02-15T21:47:24.949Z,4.10
2023-02-15T21:49:52.872Z,4.00
2023-02-15T21:52:23.520Z,4.00
2023-02-15T21:54:50.393Z,4.00
2023-02-15T21:57:17.798Z,4.00
2023-02-15T21:59:44.593Z,4.00
2023-02-15T22:02:29.433Z,4.00
2023-02-15T22:04:56.558Z,4.10
2023-02-15T22:07:23.306Z,4.10
2023-02-15T22:09:50.026Z,4.00
2023-02-15T22:12:18.512Z,4.00
2023-02-15T22:14:50.403Z,4.00
2023-02-15T22:17:20.464Z,3.90
2023-02-15T22:19:49.643Z,3.90
2023-02-15T22:22:17.140Z,3.90
2023-02-15T22:24:44.890Z,3.90
2023-02-15T22:27:21.998Z,3.80
2023-02-15T22:29:49.786Z,3.80
2023-02-15T22:32:19.228Z,3.80
2023-02-15T22:34:46.127Z,3.80
2023-02-15T22:37:13.198Z,3.80
2023-02-15T22:39:40.141Z,3.90
2023-02-15T22:42:27.217Z,3.70
2023-02-15T22:44:56.092Z,3.80
2023-02-15T22:47:25.599Z,3.80
2023-02-15T22:49:52.415Z,3.70
2023-02-15T22:52:19.151Z,3.70
2023-02-15T22:54:46.387Z,3.70
2023-02-15T22:57:27.964Z,3.70
2023-02-15T22:59:54.925Z,3.80
2023-02-15T23:02:21.702Z,3.90
2023-02-15T23:04:48.663Z,3.90
2023-02-15T23:07:18.924Z,4.00
2023-02-15T23:09:46.089Z,4.00
2023-02-15T23:12:50.269Z,4.10
2023-02-15T23:15:17.163Z,4.20
2023-02-15T23:17:43.881Z,4.20
2023-02-15T23:20:15.242Z,4.30
2023-02-15T23:22:43.791Z,4.20
2023-02-15T23:25:11.985Z,4.30
2023-02-15T23:27:56.851Z,4.50
2023-02-15T23:30:23.973Z,4.40
2023-02-15T23:32:53.284Z,4.30
2023-02-15T23:35:20.325Z,4.30
2023-02-15T23:37:47.584Z,4.30
2023-02-15T23:40:37.932Z,4.40
2023-02-15T23:43:06.242Z,4.40
2023-02-15T23:45:37.855Z,4.30
2023-02-15T23:48:29.601Z,4.30
2023-02-15T23:50:56.802Z,4.40
2023-02-15T23:53:23.529Z,4.40
2023-02-15T23:55:50.476Z,4.40
2023-02-15T23:58:20.397Z,4.30
